Simpsonville, SC (29680)

4:37 PM EDT on October 24, 2014 (GMT -0400)
Martins Grove | Change Station
CLOSE
Current Station
Personal Weather Station
Location: Simpsonville, SC
Elevation: 866 ft
Nearby Weather Stations

Elev 866 ft 34.71 °N, 82.26 °W | Updated 14 minutes ago

Clear
Clear
70.3 °F
Feels Like 77 °F
N
0.0
Wind Variable Wind from NNW

Today
High -- | Low -- °F
--% Chance of Precip.
Yesterday
High -- | Low -- °F
Precip. -- in
7:42 AM 6:43 PM
New Moon, 1% visible
Pressure 30.01 in
Visibility 10.0 miles
Clouds Clear
Heat Index 77 °F
Dew Point 51 °F
Humidity 50%
Rainfall 0.00 in
Snow Depth Not available.
UV 3 out of 12
Pollen 2.60 out of 12
Ozone Good
PM2.5 Good
Flu Activity Sporadic
METAR KGYH 241947Z 00000KT 10SM CLR 18/03 A3001

More Conditions Fewer Conditions

Pressure 30.01 in
Visibility 10.0 miles
Clouds Clear
Heat Index 77 °F
Dew Point 51 °F
Humidity 50%
Rainfall 0.00 in
Snow Depth Not available.
UV 3 out of 12
Pollen 2.60 out of 12
Ozone Good
PM2.5 Good
Flu Activity Sporadic
METAR KGYH 241947Z 00000KT 10SM CLR 18/03 A3001

More Conditions Fewer Conditions

10-Day Weather Forecast

Almanac

Astronomy

Oct. 24, 2014 Rise Set
Actual Time 7:42 AM EDT 6:43 PM EDT
Civil Twilight 7:16 AM EDT 7:09 PM EDT
Nautical Twilight 6:47 AM EDT 7:38 PM EDT
Astronomical Twilight 6:17 AM EDT 8:08 PM EDT
Moon 8:18 AM EDT 7:24 PM EDT
Length of Visible Light 11h 52m
Length of Day
11h 01m
Tomorrow will be 2m 0s shorter.
New Moon, 1% of the Moon is Illuminated
Today
New Moon
Oct 30
First Quarter
Nov 6
Full
Nov 14
Last Quarter
Nov 22
New

Today's Extremes

State Highs State Lows

Community

WunderPhotos

Upload Photos

1,764,648 photos uploaded!

Nearby

Air Quality

  Air Quality AQ Index Pollutant
Yesterday Good
OZONE
Yesterday Good
PM2.5
Current Good
OZONE
Current Good
PM2.5

Snow Depth

Station Depth Elevation
No new snow has been reported.

Earthquake Activity

City Distance Mag. Time & Date
No recent earthquake activity has been reported nearby.
Minimum magnitude displayed is 2.5.

Coastal Water Temperatures

Place Temperature
No Stations Reporting

Nearby Weather Stations